createdAt,value
2018-03-04T00:01:59.682Z,61.22
2018-03-04T00:04:27.285Z,60.99
2018-03-04T00:06:54.892Z,61.06
2018-03-04T00:09:22.529Z,61.06
2018-03-04T00:11:50.457Z,61.04
2018-03-04T00:14:18.067Z,61.07
2018-03-04T00:16:45.685Z,61.19
2018-03-04T00:19:13.312Z,61.44
2018-03-04T00:21:41.000Z,61.42
2018-03-04T00:24:08.602Z,61.66
2018-03-04T00:26:36.156Z,61.70
2018-03-04T00:29:03.800Z,62.07
2018-03-04T00:31:31.404Z,62.55
2018-03-04T00:33:59.124Z,62.63
2018-03-04T00:36:27.268Z,62.67
2018-03-04T00:38:54.930Z,62.53
2018-03-04T00:41:22.497Z,62.62
2018-03-04T00:43:50.124Z,62.70
2018-03-04T00:46:18.048Z,62.82
2018-03-04T00:48:45.672Z,62.72
2018-03-04T00:51:13.307Z,62.67
2018-03-04T00:53:40.898Z,62.85
2018-03-04T00:56:08.572Z,62.80
2018-03-04T00:58:36.156Z,62.76
2018-03-04T01:01:03.734Z,62.64
2018-03-04T01:03:32.200Z,62.43
2018-03-04T01:05:59.790Z,62.19
2018-03-04T01:08:27.360Z,62.07
2018-03-04T01:10:55.016Z,62.03
2018-03-04T01:13:22.608Z,61.93
2018-03-04T01:15:50.216Z,61.99
2018-03-04T01:18:17.862Z,61.89
2018-03-04T01:20:45.674Z,61.89
2018-03-04T01:23:13.240Z,61.70
2018-03-04T01:25:40.846Z,61.65
2018-03-04T01:28:08.487Z,61.41
2018-03-04T01:30:36.130Z,61.36
2018-03-04T01:33:03.693Z,61.39
2018-03-04T01:35:31.257Z,61.27
2018-03-04T01:37:58.916Z,61.18
2018-03-04T01:40:26.765Z,61.27
2018-03-04T01:42:54.789Z,61.31
2018-03-04T01:45:22.370Z,61.24
2018-03-04T01:47:49.964Z,61.33
2018-03-04T01:50:17.562Z,61.22
2018-03-04T01:52:45.137Z,61.40
2018-03-04T01:55:12.714Z,61.53
2018-03-04T01:57:40.306Z,61.44
2018-03-04T02:00:07.926Z,61.56
2018-03-04T02:02:35.533Z,61.56
2018-03-04T02:05:03.178Z,61.60
2018-03-04T02:07:30.776Z,62.02
2018-03-04T02:09:58.357Z,61.92
2018-03-04T02:12:26.001Z,62.03
2018-03-04T02:14:53.612Z,62.09
2018-03-04T02:17:21.176Z,62.38
2018-03-04T02:19:48.794Z,62.24
2018-03-04T02:22:16.671Z,62.10
2018-03-04T02:24:44.249Z,62.20
2018-03-04T02:27:12.139Z,62.11
2018-03-04T02:29:39.821Z,62.12
2018-03-04T02:32:07.390Z,62.19
2018-03-04T02:34:35.053Z,62.17
2018-03-04T02:37:02.640Z,62.23
2018-03-04T02:39:30.219Z,62.33
2018-03-04T02:41:57.896Z,62.20
2018-03-04T02:44:25.748Z,62.22
2018-03-04T02:46:53.372Z,62.22
2018-03-04T02:49:21.256Z,62.23
2018-03-04T02:51:48.966Z,62.24
2018-03-04T02:54:16.608Z,62.36
2018-03-04T02:56:44.247Z,62.32
2018-03-04T02:59:12.137Z,62.42
2018-03-04T03:01:39.706Z,62.49
2018-03-04T03:04:07.642Z,62.43
2018-03-04T03:06:35.650Z,62.47
2018-03-04T03:09:03.274Z,62.51
2018-03-04T03:11:30.884Z,62.54
2018-03-04T03:13:58.529Z,62.71
2018-03-04T03:16:26.233Z,62.47
2018-03-04T03:18:53.832Z,62.45
2018-03-04T03:21:21.408Z,62.84
2018-03-04T03:23:49.076Z,62.83
2018-03-04T03:26:16.731Z,63.07
2018-03-04T03:28:44.285Z,62.93
2018-03-04T03:31:11.865Z,62.95
2018-03-04T03:33:39.491Z,62.96
2018-03-04T03:36:07.066Z,62.98
2018-03-04T03:38:34.652Z,62.95
2018-03-04T03:41:02.287Z,63.21
2018-03-04T03:43:29.872Z,63.08
2018-03-04T03:45:57.447Z,63.08
2018-03-04T03:48:25.335Z,62.94
2018-03-04T03:50:53.000Z,62.90
2018-03-04T03:53:20.568Z,62.98
2018-03-04T03:55:48.199Z,63.06
2018-03-04T03:58:15.969Z,63.08
2018-03-04T04:00:43.540Z,63.06
2018-03-04T04:03:11.132Z,63.17
2018-03-04T04:05:38.786Z,63.19
2018-03-04T04:08:06.357Z,63.22
2018-03-04T04:10:33.952Z,63.28
2018-03-04T04:13:01.591Z,63.27
2018-03-04T04:15:29.203Z,63.36
2018-03-04T04:17:56.786Z,63.25
2018-03-04T04:20:24.458Z,63.26
2018-03-04T04:22:52.028Z,63.24
2018-03-04T04:25:19.584Z,63.33
2018-03-04T04:27:47.209Z,63.39
2018-03-04T04:30:14.858Z,63.39
2018-03-04T04:32:42.441Z,63.37
2018-03-04T04:35:10.112Z,63.37
2018-03-04T04:37:37.718Z,63.39
2018-03-04T04:40:05.336Z,63.44
2018-03-04T04:42:32.935Z,63.58
2018-03-04T04:45:00.498Z,63.61
2018-03-04T04:47:28.089Z,63.66
2018-03-04T04:49:55.965Z,63.85
2018-03-04T04:52:23.979Z,64.12
2018-03-04T04:54:51.533Z,63.94
2018-03-04T04:57:19.184Z,64.01
2018-03-04T04:59:46.746Z,64.17
2018-03-04T05:02:14.310Z,64.33
2018-03-04T05:04:41.932Z,64.46
2018-03-04T05:07:09.503Z,64.68
2018-03-04T05:09:37.406Z,64.77
2018-03-04T05:12:05.130Z,64.84
2018-03-04T05:14:32.702Z,65.08
2018-03-04T05:17:00.588Z,65.01
2018-03-04T05:19:28.218Z,65.27
2018-03-04T05:21:55.813Z,65.10
2018-03-04T05:24:23.392Z,65.29
2018-03-04T05:26:51.031Z,65.27
2018-03-04T05:29:18.628Z,65.48
2018-03-04T05:31:46.562Z,65.99
2018-03-04T05:34:14.388Z,66.05
2018-03-04T05:36:42.181Z,65.73
2018-03-04T05:39:09.798Z,65.97
2018-03-04T05:41:37.418Z,65.97
2018-03-04T05:44:04.987Z,66.12
2018-03-04T05:46:32.587Z,66.25
2018-03-04T05:49:00.203Z,66.25
2018-03-04T05:51:27.841Z,66.53
2018-03-04T05:53:55.623Z,66.56
2018-03-04T05:56:23.224Z,66.77
2018-03-04T05:58:50.802Z,66.70
2018-03-04T06:01:18.692Z,66.59
2018-03-04T06:03:46.268Z,66.72
2018-03-04T06:06:13.840Z,66.84
2018-03-04T06:08:41.806Z,66.76
2018-03-04T06:11:09.393Z,66.97
2018-03-04T06:13:37.037Z,67.28
2018-03-04T06:16:04.696Z,67.61
2018-03-04T06:18:32.265Z,67.54
2018-03-04T06:20:59.825Z,67.83
2018-03-04T06:23:27.452Z,67.51
2018-03-04T06:25:55.106Z,67.50
2018-03-04T06:28:22.745Z,67.46
2018-03-04T06:30:50.324Z,67.57
2018-03-04T06:33:18.028Z,67.24
2018-03-04T06:35:45.703Z,67.26
2018-03-04T06:38:13.369Z,67.04
2018-03-04T06:40:40.955Z,67.00
2018-03-04T06:43:08.648Z,66.91
2018-03-04T06:45:36.253Z,66.64
2018-03-04T06:48:03.952Z,66.50
2018-03-04T06:50:31.604Z,66.48
2018-03-04T06:52:59.217Z,66.32
2018-03-04T06:55:26.792Z,66.23
2018-03-04T06:57:54.398Z,66.04
2018-03-04T07:00:21.996Z,66.01
2018-03-04T07:02:49.806Z,65.98
2018-03-04T07:05:17.536Z,66.17
2018-03-04T07:07:45.200Z,65.88
2018-03-04T07:10:12.827Z,65.74
2018-03-04T07:12:40.497Z,65.79
2018-03-04T07:15:08.068Z,65.83
2018-03-04T07:17:36.657Z,65.54
2018-03-04T07:20:04.491Z,65.40
2018-03-04T07:22:32.492Z,65.48
2018-03-04T07:25:00.113Z,65.16
2018-03-04T07:27:27.805Z,65.28
2018-03-04T07:29:55.502Z,65.14
2018-03-04T07:32:23.293Z,65.24
2018-03-04T07:34:51.874Z,64.98
2018-03-04T07:37:19.810Z,65.18
2018-03-04T07:39:47.531Z,65.17
2018-03-04T07:42:15.152Z,64.93
2018-03-04T07:44:42.826Z,64.92
2018-03-04T07:47:10.513Z,64.76
2018-03-04T07:49:38.400Z,64.70
2018-03-04T07:52:06.001Z,64.70
2018-03-04T07:54:33.700Z,64.59
2018-03-04T07:57:01.570Z,64.40
2018-03-04T07:59:29.274Z,64.58
2018-03-04T08:01:56.936Z,64.38
2018-03-04T08:04:24.540Z,64.43
2018-03-04T08:06:52.198Z,64.30
2018-03-04T08:09:19.803Z,64.22
2018-03-04T08:11:47.371Z,64.27
2018-03-04T08:14:16.174Z,64.14
2018-03-04T08:16:43.792Z,63.86
2018-03-04T08:19:11.377Z,64.11
2018-03-04T08:21:38.960Z,63.95
2018-03-04T08:24:06.569Z,64.07
2018-03-04T08:26:45.888Z,63.83
2018-03-04T08:29:13.524Z,63.72
2018-03-04T08:31:41.500Z,63.67
2018-03-04T08:34:09.212Z,63.70
2018-03-04T08:36:36.943Z,63.23
2018-03-04T08:39:04.610Z,63.35
2018-03-04T08:41:32.301Z,63.48
2018-03-04T08:43:59.932Z,63.00
2018-03-04T08:46:27.513Z,63.10
2018-03-04T08:48:55.156Z,62.97
2018-03-04T08:51:22.827Z,63.19
2018-03-04T08:53:50.400Z,63.23
2018-03-04T08:56:17.963Z,62.92
2018-03-04T08:58:45.844Z,63.27
2018-03-04T09:01:13.705Z,63.21
2018-03-04T09:03:41.261Z,62.97
2018-03-04T09:06:09.161Z,62.90
2018-03-04T09:08:37.035Z,62.95
2018-03-04T09:11:04.686Z,63.09
2018-03-04T09:13:32.288Z,62.80
2018-03-04T09:15:59.878Z,62.88
2018-03-04T09:18:27.785Z,62.96
2018-03-04T09:20:55.405Z,62.92
2018-03-04T09:23:23.314Z,62.87
2018-03-04T09:25:50.903Z,62.75
2018-03-04T09:28:18.526Z,62.67
2018-03-04T09:30:46.125Z,62.71
2018-03-04T09:33:13.718Z,62.69
2018-03-04T09:35:41.310Z,62.67
2018-03-04T09:38:08.936Z,62.36
2018-03-04T09:40:36.499Z,62.12
2018-03-04T09:43:04.415Z,62.23
2018-03-04T09:45:32.056Z,61.94
2018-03-04T09:47:59.670Z,62.00
2018-03-04T09:50:27.244Z,62.05
2018-03-04T09:52:54.813Z,61.94
2018-03-04T09:55:22.430Z,62.31
2018-03-04T09:57:50.132Z,62.54
2018-03-04T10:00:17.748Z,62.79
2018-03-04T10:02:45.557Z,62.71
2018-03-04T10:05:13.193Z,62.85
2018-03-04T10:07:40.776Z,62.59
2018-03-04T10:10:08.444Z,62.10
2018-03-04T10:12:36.072Z,62.21
2018-03-04T10:15:03.656Z,62.25
2018-03-04T10:17:31.261Z,62.05
2018-03-04T10:19:58.840Z,61.06
2018-03-04T10:22:26.405Z,60.75
2018-03-04T10:24:54.359Z,60.88
2018-03-04T10:27:22.010Z,60.68
2018-03-04T10:29:49.569Z,60.70
2018-03-04T10:32:17.167Z,60.13
2018-03-04T10:34:44.765Z,60.22
2018-03-04T10:37:12.435Z,59.86
2018-03-04T10:39:40.083Z,59.73
2018-03-04T10:42:07.659Z,59.56
2018-03-04T10:44:35.342Z,59.69
2018-03-04T10:47:02.933Z,59.49
2018-03-04T10:49:30.524Z,59.23
2018-03-04T10:51:58.200Z,59.32
2018-03-04T10:54:25.773Z,59.47
2018-03-04T10:56:53.379Z,59.51
2018-03-04T10:59:21.005Z,59.56
2018-03-04T11:01:51.496Z,59.50
2018-03-04T11:04:19.101Z,59.45
2018-03-04T11:06:46.928Z,59.58
2018-03-04T11:09:14.622Z,59.61
2018-03-04T11:11:42.206Z,59.86
2018-03-04T11:14:09.823Z,59.80
2018-03-04T11:16:37.461Z,59.76
2018-03-04T11:19:05.032Z,59.80
2018-03-04T11:21:32.608Z,59.90
2018-03-04T11:24:00.437Z,59.59
2018-03-04T11:26:28.095Z,59.23
2018-03-04T11:28:55.766Z,59.53
2018-03-04T11:31:23.361Z,59.35
2018-03-04T11:33:51.025Z,58.97
2018-03-04T11:36:18.606Z,59.00
2018-03-04T11:38:46.208Z,59.13
2018-03-04T11:41:13.823Z,58.77
2018-03-04T11:43:41.422Z,58.63
2018-03-04T11:46:08.996Z,58.57
2018-03-04T11:48:36.623Z,58.63
2018-03-04T11:51:04.176Z,58.45
2018-03-04T11:53:31.760Z,58.27
2018-03-04T11:55:59.372Z,57.88
2018-03-04T11:58:26.979Z,58.08
2018-03-04T12:00:54.547Z,58.02
2018-03-04T12:03:22.307Z,57.62
2018-03-04T12:05:49.908Z,56.79
2018-03-04T12:08:17.477Z,57.02
2018-03-04T12:10:45.108Z,57.13
2018-03-04T12:13:12.663Z,56.90
2018-03-04T12:15:40.599Z,57.14
2018-03-04T12:18:08.195Z,57.07
2018-03-04T12:20:36.023Z,56.28
2018-03-04T12:23:03.583Z,56.45
2018-03-04T12:25:31.246Z,56.22
2018-03-04T12:27:58.810Z,56.15
2018-03-04T12:30:26.367Z,56.34
2018-03-04T12:32:53.945Z,56.04
2018-03-04T12:35:21.535Z,56.25
2018-03-04T12:37:49.135Z,55.74
2018-03-04T12:40:16.760Z,55.70
2018-03-04T12:42:44.344Z,55.42
2018-03-04T12:45:13.502Z,55.69
2018-03-04T12:47:41.126Z,55.17
2018-03-04T12:50:08.709Z,54.41
2018-03-04T12:52:36.309Z,54.13
2018-03-04T12:55:04.159Z,53.67
2018-03-04T12:57:31.730Z,53.83
2018-03-04T12:59:59.391Z,53.93
2018-03-04T13:02:27.305Z,54.47
2018-03-04T13:04:54.913Z,54.73
2018-03-04T13:07:22.488Z,53.88
2018-03-04T13:09:50.106Z,53.90
2018-03-04T13:12:17.681Z,53.41
2018-03-04T13:14:45.268Z,53.11
2018-03-04T13:17:12.902Z,52.25
2018-03-04T13:19:40.500Z,51.86
2018-03-04T13:22:08.127Z,51.40
2018-03-04T13:24:35.748Z,51.46
2018-03-04T13:27:03.443Z,51.26
2018-03-04T13:29:31.072Z,51.93
2018-03-04T13:31:58.638Z,51.02
2018-03-04T13:34:26.260Z,50.33
2018-03-04T13:36:53.841Z,50.21
2018-03-04T13:39:21.448Z,50.38
2018-03-04T13:41:49.085Z,49.79
2018-03-04T13:44:17.064Z,49.97
2018-03-04T13:46:44.649Z,50.04
2018-03-04T13:49:12.232Z,50.07
2018-03-04T13:51:39.883Z,49.76
2018-03-04T13:54:07.804Z,49.36
2018-03-04T13:56:35.613Z,49.84
2018-03-04T13:59:03.206Z,49.55
2018-03-04T14:01:30.790Z,49.49
2018-03-04T14:03:58.359Z,49.27
2018-03-04T14:06:25.982Z,48.17
2018-03-04T14:08:53.564Z,48.52
2018-03-04T14:11:21.210Z,48.38
2018-03-04T14:13:48.821Z,48.43
2018-03-04T14:16:16.401Z,47.89
2018-03-04T14:18:44.001Z,47.49
2018-03-04T14:21:11.687Z,47.38
2018-03-04T14:23:39.266Z,47.36
2018-03-04T14:26:06.843Z,47.92
2018-03-04T14:28:34.495Z,47.83
2018-03-04T14:31:02.057Z,48.15
2018-03-04T14:33:29.628Z,48.22
2018-03-04T14:35:57.277Z,48.30
2018-03-04T14:38:24.866Z,47.73
2018-03-04T14:40:52.490Z,47.85
2018-03-04T14:43:20.152Z,47.87
2018-03-04T14:45:47.727Z,47.41
2018-03-04T14:48:15.296Z,47.19
2018-03-04T14:50:42.955Z,47.29
2018-03-04T14:53:10.566Z,47.75
2018-03-04T14:55:38.143Z,48.52
2018-03-04T14:58:05.750Z,48.66
2018-03-04T15:00:33.391Z,48.92
2018-03-04T15:03:00.984Z,49.36
2018-03-04T15:05:28.585Z,49.52
2018-03-04T15:07:56.245Z,50.13
2018-03-04T15:10:23.835Z,50.45
2018-03-04T15:12:51.416Z,50.92
2018-03-04T15:15:19.063Z,51.29
2018-03-04T15:17:46.637Z,51.66
2018-03-04T15:20:14.245Z,52.17
2018-03-04T15:22:41.832Z,52.24
2018-03-04T15:25:09.431Z,52.46
2018-03-04T15:27:37.024Z,52.67
2018-03-04T15:30:04.631Z,52.91
2018-03-04T15:32:32.242Z,53.01
2018-03-04T15:34:59.967Z,53.27
2018-03-04T15:37:27.544Z,53.32
2018-03-04T15:39:55.104Z,53.53
2018-03-04T15:42:22.741Z,53.76
2018-03-04T15:44:50.347Z,54.15
2018-03-04T15:47:17.924Z,54.75
2018-03-04T15:49:45.566Z,54.89
2018-03-04T15:52:13.126Z,55.10
2018-03-04T15:54:40.733Z,55.51
2018-03-04T15:57:08.584Z,55.66
2018-03-04T15:59:36.435Z,55.92
2018-03-04T16:02:04.006Z,56.37
2018-03-04T16:04:31.595Z,56.64
2018-03-04T16:06:59.174Z,56.81
2018-03-04T16:09:26.763Z,57.11
2018-03-04T16:11:54.380Z,57.36
2018-03-04T16:14:22.016Z,57.38
2018-03-04T16:16:52.812Z,58.03
2018-03-04T16:19:21.196Z,58.07
2018-03-04T16:21:48.749Z,58.51
2018-03-04T16:24:16.332Z,58.68
2018-03-04T16:26:43.938Z,58.74
2018-03-04T16:29:12.878Z,59.53
2018-03-04T16:31:40.706Z,59.73
2018-03-04T16:34:09.540Z,60.07
2018-03-04T16:36:37.191Z,60.26
2018-03-04T16:39:04.808Z,60.88
2018-03-04T16:41:32.421Z,61.08
2018-03-04T16:44:00.049Z,61.29
2018-03-04T16:46:27.626Z,61.59
2018-03-04T16:48:55.197Z,61.81
2018-03-04T16:51:22.786Z,62.24
2018-03-04T16:53:50.395Z,62.37
2018-03-04T16:56:17.978Z,62.21
2018-03-04T16:58:45.581Z,62.98
2018-03-04T17:01:13.205Z,62.83
2018-03-04T17:03:40.780Z,63.30
2018-03-04T17:06:08.356Z,63.76
2018-03-04T17:08:36.058Z,63.70
2018-03-04T17:11:03.644Z,63.71
2018-03-04T17:13:31.269Z,63.87
2018-03-04T17:15:58.942Z,64.65
2018-03-04T17:18:26.521Z,64.78
2018-03-04T17:20:54.102Z,64.91
2018-03-04T17:23:21.703Z,65.26
2018-03-04T17:25:49.265Z,65.69
2018-03-04T17:28:16.841Z,65.84
2018-03-04T17:30:44.457Z,66.41
2018-03-04T17:33:12.930Z,66.11
2018-03-04T17:35:41.644Z,66.22
2018-03-04T17:38:09.230Z,66.75
2018-03-04T17:40:36.853Z,66.70
2018-03-04T17:43:04.810Z,66.53
2018-03-04T17:45:32.479Z,66.70
2018-03-04T17:48:00.326Z,67.05
2018-03-04T17:50:27.942Z,67.15
2018-03-04T17:52:55.539Z,67.12
2018-03-04T17:55:23.153Z,67.18
2018-03-04T17:57:50.763Z,67.20
2018-03-04T18:00:18.370Z,67.21
2018-03-04T18:02:45.963Z,67.32
2018-03-04T18:05:14.340Z,67.30
2018-03-04T18:07:41.918Z,67.36
2018-03-04T18:10:09.568Z,67.57
2018-03-04T18:12:37.154Z,67.50
2018-03-04T18:15:04.729Z,67.37
2018-03-04T18:17:32.331Z,67.43
2018-03-04T18:19:59.970Z,67.51
2018-03-04T18:22:27.522Z,67.72
2018-03-04T18:24:55.107Z,67.73
2018-03-04T18:27:22.924Z,67.66
2018-03-04T18:29:50.510Z,68.09
2018-03-04T18:32:18.099Z,68.05
2018-03-04T18:34:45.741Z,68.45
2018-03-04T18:37:13.315Z,68.66
2018-03-04T18:39:40.886Z,68.81
2018-03-04T18:42:08.550Z,68.79
2018-03-04T18:44:36.337Z,69.11
2018-03-04T18:47:03.918Z,68.96
2018-03-04T18:49:32.163Z,68.96
2018-03-04T18:52:00.074Z,69.47
2018-03-04T18:54:27.733Z,69.69
2018-03-04T18:56:55.303Z,69.80
2018-03-04T18:59:22.900Z,69.62
2018-03-04T19:01:50.740Z,69.67
2018-03-04T19:04:18.364Z,69.94
2018-03-04T19:06:46.255Z,70.17
2018-03-04T19:09:13.826Z,70.33
2018-03-04T19:11:41.635Z,70.59
2018-03-04T19:14:09.218Z,70.69
2018-03-04T19:16:36.779Z,70.64
2018-03-04T19:19:04.365Z,70.68
2018-03-04T19:21:31.940Z,70.67
2018-03-04T19:23:59.787Z,70.67
2018-03-04T19:26:27.379Z,71.20
2018-03-04T19:28:55.015Z,71.08
2018-03-04T19:31:22.654Z,71.05
2018-03-04T19:33:50.485Z,71.18
2018-03-04T19:36:18.088Z,71.26
2018-03-04T19:38:45.723Z,71.25
2018-03-04T19:41:13.386Z,71.34
2018-03-04T19:43:41.045Z,71.63
2018-03-04T19:46:08.615Z,71.78
2018-03-04T19:48:36.211Z,72.35
2018-03-04T19:51:03.917Z,72.40
2018-03-04T19:53:31.498Z,72.63
2018-03-04T19:55:59.070Z,72.51
2018-03-04T19:58:26.819Z,72.70
2018-03-04T20:00:54.374Z,72.76
2018-03-04T20:03:22.041Z,72.94
2018-03-04T20:05:53.508Z,72.95
2018-03-04T20:08:21.102Z,73.37
2018-03-04T20:10:48.687Z,73.13
2018-03-04T20:13:16.310Z,73.12
2018-03-04T20:15:43.923Z,73.12
2018-03-04T20:18:11.505Z,73.07
2018-03-04T20:20:39.173Z,73.30
2018-03-04T20:23:06.742Z,73.22
2018-03-04T20:25:34.342Z,73.59
2018-03-04T20:28:02.043Z,73.85
2018-03-04T20:30:29.626Z,73.81
2018-03-04T20:32:57.237Z,73.79
2018-03-04T20:35:24.972Z,73.95
2018-03-04T20:37:52.649Z,74.30
2018-03-04T20:40:20.343Z,74.38
2018-03-04T20:42:48.066Z,74.84
2018-03-04T20:45:15.686Z,74.71
2018-03-04T20:47:43.479Z,74.98
2018-03-04T20:50:11.398Z,75.45
2018-03-04T20:52:39.357Z,75.30
2018-03-04T20:55:06.991Z,75.40
2018-03-04T20:57:34.682Z,75.58
2018-03-04T21:00:02.717Z,75.94
2018-03-04T21:02:30.418Z,75.83
2018-03-04T21:04:58.081Z,75.82
2018-03-04T21:07:25.675Z,76.10
2018-03-04T21:09:53.733Z,76.05
2018-03-04T21:12:21.330Z,76.18
2018-03-04T21:14:48.905Z,76.62
2018-03-04T21:17:16.543Z,76.59
2018-03-04T21:19:44.549Z,76.91
2018-03-04T21:22:12.139Z,77.59
2018-03-04T21:24:39.769Z,77.65
2018-03-04T21:27:07.352Z,78.00
2018-03-04T21:29:34.922Z,78.91
2018-03-04T21:32:02.624Z,79.17
2018-03-04T21:34:30.218Z,79.27
2018-03-04T21:36:57.790Z,79.66
2018-03-04T21:39:25.358Z,80.06
2018-03-04T21:41:52.952Z,80.23
2018-03-04T21:44:20.550Z,80.30
2018-03-04T21:46:48.199Z,80.55
2018-03-04T21:49:16.065Z,80.86
2018-03-04T21:51:43.912Z,81.56
2018-03-04T21:54:11.497Z,81.54
2018-03-04T21:56:39.107Z,82.94
2018-03-04T21:59:06.656Z,83.59
2018-03-04T22:01:34.242Z,84.17
2018-03-04T22:04:01.865Z,85.12
2018-03-04T22:06:29.452Z,85.30
2018-03-04T22:08:57.032Z,85.39
2018-03-04T22:11:24.739Z,86.02
2018-03-04T22:13:52.371Z,86.11
2018-03-04T22:16:19.959Z,86.42
2018-03-04T22:18:47.584Z,86.63
2018-03-04T22:21:15.169Z,86.71
2018-03-04T22:23:42.785Z,86.91
2018-03-04T22:26:10.369Z,87.24
2018-03-04T22:28:37.975Z,87.46
2018-03-04T22:31:05.590Z,87.42
2018-03-04T22:33:33.190Z,87.56
2018-03-04T22:36:00.779Z,87.62
2018-03-04T22:38:28.453Z,87.43
2018-03-04T22:40:56.033Z,87.85
2018-03-04T22:43:23.599Z,87.99
2018-03-04T22:45:51.213Z,88.05
2018-03-04T22:48:18.798Z,88.00
2018-03-04T22:50:46.356Z,87.87
2018-03-04T22:53:13.953Z,87.86
2018-03-04T22:55:41.758Z,88.15
2018-03-04T22:58:09.326Z,88.09
2018-03-04T23:00:36.909Z,88.01
2018-03-04T23:03:05.670Z,88.12
2018-03-04T23:05:36.067Z,88.35
2018-03-04T23:08:03.613Z,88.60
2018-03-04T23:10:31.204Z,88.73
2018-03-04T23:12:58.793Z,89.45
2018-03-04T23:15:26.391Z,89.41
2018-03-04T23:17:53.969Z,89.70
2018-03-04T23:20:21.580Z,89.87
2018-03-04T23:22:49.146Z,90.03
2018-03-04T23:25:16.729Z,90.45
2018-03-04T23:27:44.588Z,91.08
2018-03-04T23:30:12.755Z,91.07
2018-03-04T23:32:40.922Z,91.29
2018-03-04T23:35:09.480Z,91.43
2018-03-04T23:37:37.504Z,91.67
2018-03-04T23:40:05.662Z,91.54
2018-03-04T23:42:33.754Z,91.85
2018-03-04T23:45:01.793Z,92.07
2018-03-04T23:47:29.432Z,91.92
2018-03-04T23:49:57.039Z,91.81
2018-03-04T23:52:24.591Z,91.77
2018-03-04T23:54:52.467Z,91.85
2018-03-04T23:57:20.045Z,91.80
2018-03-04T23:59:47.925Z,91.76
